METAR

Letisková meteorologická správa METAR

Meteorologické informácie z ďalších profesionálnych meteorologických staníc SHMÚ zobrazené v tvare zodpovedajúcom pravidlám kódovania správ METAR sú uvedené v položke „METSYN

Informácie o správe METAR

29.11.2020 - 05:00 UTC

METAR LZIB 290500Z 29007KT 9999 FEW041 BKN084 00/M02 Q1022 NOSIG=
METAR LZKZ 290500Z 21002KT 1800 -SN BR BKN003 M01/M01 Q1019=
METAR LZPP 290500Z VRB01KT 9999 SCT035 SCT080 M00/M02 Q1021=
METAR LZSL 290500Z 00000KT 2500 BR BKN003 M03/M03 Q1019=
METAR LZTT 290500Z 26009KT 9999 FEW010 SCT026 BKN100 M03/M05 Q1016=
METAR LZZI 290500Z VRB01KT 9999 -SN BKN025 OVC037 M00/M02 Q1019=

29.11.2020 - 04:30 UTC

METAR LZZI 290430Z VRB02KT 9999 -SN BKN025 OVC037 M00/M02 Q1019=

29.11.2020 - 05:00 UTC

METAR LZMC 290500Z 14002KT 3000 BCFG BR NSC M03/M03
Q1022=
METAR LZPW 290500Z 00000KT 2100 -SN BKN003 OVC014
M01/M01 Q1018=

skok na menu ↑


skok na začiatok stránky ↑